sensor_id;sensor_type;location;lat;lon;timestamp;temperature;humidity
16263;DHT22;8239;48.594;8.598;2024-02-26T00:01:12;2.30;99.90
16263;DHT22;8239;48.594;8.598;2024-02-26T00:03:38;2.10;99.90
16263;DHT22;8239;48.594;8.598;2024-02-26T00:06:08;2.10;99.90
16263;DHT22;8239;48.594;8.598;2024-02-26T00:08:35;2.00;99.90
16263;DHT22;8239;48.594;8.598;2024-02-26T00:11:02;1.90;99.90
16263;DHT22;8239;48.594;8.598;2024-02-26T00:13:28;2.00;99.90
16263;DHT22;8239;48.594;8.598;2024-02-26T00:15:55;2.00;99.90
16263;DHT22;8239;48.594;8.598;2024-02-26T00:18:24;2.00;99.90
16263;DHT22;8239;48.594;8.598;2024-02-26T00:20:51;2.10;99.90
16263;DHT22;8239;48.594;8.598;2024-02-26T00:23:18;2.20;99.90
16263;DHT22;8239;48.594;8.598;2024-02-26T00:25:44;2.30;99.90
16263;DHT22;8239;48.594;8.598;2024-02-26T00:28:11;2.20;99.90
16263;DHT22;8239;48.594;8.598;2024-02-26T00:30:39;2.30;99.90
16263;DHT22;8239;48.594;8.598;2024-02-26T00:33:06;2.10;99.90
16263;DHT22;8239;48.594;8.598;2024-02-26T00:35:34;2.10;99.90
16263;DHT22;8239;48.594;8.598;2024-02-26T00:38:01;2.00;99.90
16263;DHT22;8239;48.594;8.598;2024-02-26T00:40:28;2.00;99.90
16263;DHT22;8239;48.594;8.598;2024-02-26T00:42:55;2.00;99.90
16263;DHT22;8239;48.594;8.598;2024-02-26T00:45:22;1.90;99.90
16263;DHT22;8239;48.594;8.598;2024-02-26T00:47:49;2.00;99.90
16263;DHT22;8239;48.594;8.598;2024-02-26T00:50:16;2.00;99.90
16263;DHT22;8239;48.594;8.598;2024-02-26T00:52:44;2.10;99.90
16263;DHT22;8239;48.594;8.598;2024-02-26T00:55:11;2.20;99.90
16263;DHT22;8239;48.594;8.598;2024-02-26T00:57:38;2.20;99.90
16263;DHT22;8239;48.594;8.598;2024-02-26T01:00:07;2.30;99.90
16263;DHT22;8239;48.594;8.598;2024-02-26T01:02:35;2.30;99.90
16263;DHT22;8239;48.594;8.598;2024-02-26T01:05:02;2.40;99.90
16263;DHT22;8239;48.594;8.598;2024-02-26T01:07:29;2.40;99.90
16263;DHT22;8239;48.594;8.598;2024-02-26T01:10:02;2.60;99.90
16263;DHT22;8239;48.594;8.598;2024-02-26T01:12:30;2.60;99.90
16263;DHT22;8239;48.594;8.598;2024-02-26T01:14:57;2.70;99.90
16263;DHT22;8239;48.594;8.598;2024-02-26T01:17:23;2.80;99.90
16263;DHT22;8239;48.594;8.598;2024-02-26T01:19:50;2.90;99.90
16263;DHT22;8239;48.594;8.598;2024-02-26T01:22:19;2.90;99.90
16263;DHT22;8239;48.594;8.598;2024-02-26T01:24:46;2.80;99.90
16263;DHT22;8239;48.594;8.598;2024-02-26T01:27:15;2.70;99.90
16263;DHT22;8239;48.594;8.598;2024-02-26T01:29:42;2.70;99.90
16263;DHT22;8239;48.594;8.598;2024-02-26T01:32:09;2.80;99.90
16263;DHT22;8239;48.594;8.598;2024-02-26T01:34:36;2.90;99.90
16263;DHT22;8239;48.594;8.598;2024-02-26T01:37:03;3.10;99.90
16263;DHT22;8239;48.594;8.598;2024-02-26T01:39:30;2.90;99.90
16263;DHT22;8239;48.594;8.598;2024-02-26T01:41:57;2.90;99.90
16263;DHT22;8239;48.594;8.598;2024-02-26T01:44:26;3.00;99.90
16263;DHT22;8239;48.594;8.598;2024-02-26T01:46:54;3.00;99.90
16263;DHT22;8239;48.594;8.598;2024-02-26T01:49:21;3.00;99.90
16263;DHT22;8239;48.594;8.598;2024-02-26T01:51:48;3.10;99.90
16263;DHT22;8239;48.594;8.598;2024-02-26T01:54:15;3.10;99.90
16263;DHT22;8239;48.594;8.598;2024-02-26T01:56:42;3.30;99.90
16263;DHT22;8239;48.594;8.598;2024-02-26T01:59:10;3.60;99.90
16263;DHT22;8239;48.594;8.598;2024-02-26T02:01:39;3.70;99.90
16263;DHT22;8239;48.594;8.598;2024-02-26T02:04:11;3.80;99.90
16263;DHT22;8239;48.594;8.598;2024-02-26T02:06:38;3.90;99.90
16263;DHT22;8239;48.594;8.598;2024-02-26T02:09:05;3.90;99.90
16263;DHT22;8239;48.594;8.598;2024-02-26T02:11:33;4.10;99.90
16263;DHT22;8239;48.594;8.598;2024-02-26T02:14:00;4.30;99.90
16263;DHT22;8239;48.594;8.598;2024-02-26T02:16:27;4.40;99.90
16263;DHT22;8239;48.594;8.598;2024-02-26T02:18:55;4.50;99.90
16263;DHT22;8239;48.594;8.598;2024-02-26T02:21:23;4.50;99.90
16263;DHT22;8239;48.594;8.598;2024-02-26T02:23:50;4.50;99.90
16263;DHT22;8239;48.594;8.598;2024-02-26T02:26:17;4.50;99.90
16263;DHT22;8239;48.594;8.598;2024-02-26T02:28:45;4.50;99.90
16263;DHT22;8239;48.594;8.598;2024-02-26T02:31:13;4.60;99.90
16263;DHT22;8239;48.594;8.598;2024-02-26T02:33:40;4.60;99.90
16263;DHT22;8239;48.594;8.598;2024-02-26T02:36:07;4.50;99.90
16263;DHT22;8239;48.594;8.598;2024-02-26T02:38:37;4.50;99.90
16263;DHT22;8239;48.594;8.598;2024-02-26T02:41:04;4.40;99.90
16263;DHT22;8239;48.594;8.598;2024-02-26T02:43:31;4.40;99.90
16263;DHT22;8239;48.594;8.598;2024-02-26T02:45:58;4.50;99.90
16263;DHT22;8239;48.594;8.598;2024-02-26T02:48:25;4.40;99.90
16263;DHT22;8239;48.594;8.598;2024-02-26T02:50:52;4.40;99.90
16263;DHT22;8239;48.594;8.598;2024-02-26T02:53:19;4.40;99.90
16263;DHT22;8239;48.594;8.598;2024-02-26T02:55:47;4.40;99.90
16263;DHT22;8239;48.594;8.598;2024-02-26T02:58:14;4.30;99.90
16263;DHT22;8239;48.594;8.598;2024-02-26T03:00:41;4.30;99.90
16263;DHT22;8239;48.594;8.598;2024-02-26T03:03:07;4.30;99.90
16263;DHT22;8239;48.594;8.598;2024-02-26T03:05:34;4.20;99.90
16263;DHT22;8239;48.594;8.598;2024-02-26T03:08:01;4.20;99.90
16263;DHT22;8239;48.594;8.598;2024-02-26T03:10:28;4.20;99.90
16263;DHT22;8239;48.594;8.598;2024-02-26T03:12:56;4.20;99.90
16263;DHT22;8239;48.594;8.598;2024-02-26T03:15:23;4.20;99.90
16263;DHT22;8239;48.594;8.598;2024-02-26T03:17:50;4.10;99.90
16263;DHT22;8239;48.594;8.598;2024-02-26T03:20:17;4.20;99.90
16263;DHT22;8239;48.594;8.598;2024-02-26T03:22:45;4.20;99.90
16263;DHT22;8239;48.594;8.598;2024-02-26T03:25:12;4.10;99.90
16263;DHT22;8239;48.594;8.598;2024-02-26T03:27:39;4.20;99.90
16263;DHT22;8239;48.594;8.598;2024-02-26T03:30:08;4.10;99.90
16263;DHT22;8239;48.594;8.598;2024-02-26T03:32:35;4.10;99.90
16263;DHT22;8239;48.594;8.598;2024-02-26T03:35:02;4.10;99.90
16263;DHT22;8239;48.594;8.598;2024-02-26T03:37:29;4.00;99.90
16263;DHT22;8239;48.594;8.598;2024-02-26T03:39:56;4.00;99.90
16263;DHT22;8239;48.594;8.598;2024-02-26T03:42:23;3.90;99.90
16263;DHT22;8239;48.594;8.598;2024-02-26T03:44:50;3.80;99.90
16263;DHT22;8239;48.594;8.598;2024-02-26T03:47:18;3.80;99.90
16263;DHT22;8239;48.594;8.598;2024-02-26T03:49:45;3.80;99.90
16263;DHT22;8239;48.594;8.598;2024-02-26T03:52:13;3.80;99.90
16263;DHT22;8239;48.594;8.598;2024-02-26T03:54:40;3.80;99.90
16263;DHT22;8239;48.594;8.598;2024-02-26T03:57:07;3.80;99.90
16263;DHT22;8239;48.594;8.598;2024-02-26T03:59:34;3.80;99.90
16263;DHT22;8239;48.594;8.598;2024-02-26T04:02:01;3.70;99.90
16263;DHT22;8239;48.594;8.598;2024-02-26T04:04:29;3.70;99.90
16263;DHT22;8239;48.594;8.598;2024-02-26T04:06:56;3.80;99.90
16263;DHT22;8239;48.594;8.598;2024-02-26T04:09:23;3.80;99.90
16263;DHT22;8239;48.594;8.598;2024-02-26T04:11:50;3.80;99.90
16263;DHT22;8239;48.594;8.598;2024-02-26T04:14:17;3.80;99.90
16263;DHT22;8239;48.594;8.598;2024-02-26T04:16:44;3.80;99.90
16263;DHT22;8239;48.594;8.598;2024-02-26T04:19:11;3.80;99.90
16263;DHT22;8239;48.594;8.598;2024-02-26T04:21:41;3.80;99.90
16263;DHT22;8239;48.594;8.598;2024-02-26T04:24:08;3.90;99.90
16263;DHT22;8239;48.594;8.598;2024-02-26T04:26:35;3.90;99.90
16263;DHT22;8239;48.594;8.598;2024-02-26T04:29:02;3.90;99.90
16263;DHT22;8239;48.594;8.598;2024-02-26T04:31:28;4.00;99.90
16263;DHT22;8239;48.594;8.598;2024-02-26T04:33:58;4.00;99.90
16263;DHT22;8239;48.594;8.598;2024-02-26T04:36:25;4.00;99.90
16263;DHT22;8239;48.594;8.598;2024-02-26T04:38:53;4.00;99.90
16263;DHT22;8239;48.594;8.598;2024-02-26T04:41:21;4.00;99.90
16263;DHT22;8239;48.594;8.598;2024-02-26T04:43:48;4.00;99.90
16263;DHT22;8239;48.594;8.598;2024-02-26T04:46:15;3.90;99.90
16263;DHT22;8239;48.594;8.598;2024-02-26T04:48:42;3.80;99.90
16263;DHT22;8239;48.594;8.598;2024-02-26T04:51:10;3.80;99.90
16263;DHT22;8239;48.594;8.598;2024-02-26T04:53:37;3.80;99.90
16263;DHT22;8239;48.594;8.598;2024-02-26T04:56:06;3.80;99.90
16263;DHT22;8239;48.594;8.598;2024-02-26T04:58:33;3.80;99.90
16263;DHT22;8239;48.594;8.598;2024-02-26T05:01:00;3.80;99.90
16263;DHT22;8239;48.594;8.598;2024-02-26T05:03:29;3.80;99.90
16263;DHT22;8239;48.594;8.598;2024-02-26T05:05:55;3.80;99.90
16263;DHT22;8239;48.594;8.598;2024-02-26T05:08:23;3.80;99.90
16263;DHT22;8239;48.594;8.598;2024-02-26T05:10:50;3.90;99.90
16263;DHT22;8239;48.594;8.598;2024-02-26T05:13:18;3.90;99.90
16263;DHT22;8239;48.594;8.598;2024-02-26T05:15:45;3.80;99.90
16263;DHT22;8239;48.594;8.598;2024-02-26T05:18:14;3.70;99.90
16263;DHT22;8239;48.594;8.598;2024-02-26T05:20:41;3.70;99.90
16263;DHT22;8239;48.594;8.598;2024-02-26T05:23:09;3.70;99.90
16263;DHT22;8239;48.594;8.598;2024-02-26T05:25:36;3.70;99.90
16263;DHT22;8239;48.594;8.598;2024-02-26T05:28:03;3.70;99.90
16263;DHT22;8239;48.594;8.598;2024-02-26T05:30:31;3.60;99.90
16263;DHT22;8239;48.594;8.598;2024-02-26T05:32:58;3.70;99.90
16263;DHT22;8239;48.594;8.598;2024-02-26T05:35:26;3.70;99.90
16263;DHT22;8239;48.594;8.598;2024-02-26T05:37:52;3.70;99.90
16263;DHT22;8239;48.594;8.598;2024-02-26T05:40:20;3.70;99.90
16263;DHT22;8239;48.594;8.598;2024-02-26T05:42:47;3.80;99.90
16263;DHT22;8239;48.594;8.598;2024-02-26T05:45:14;3.80;99.90
16263;DHT22;8239;48.594;8.598;2024-02-26T05:47:43;3.80;99.90
16263;DHT22;8239;48.594;8.598;2024-02-26T05:50:11;3.90;99.90
16263;DHT22;8239;48.594;8.598;2024-02-26T05:52:39;3.90;99.90
16263;DHT22;8239;48.594;8.598;2024-02-26T05:55:07;4.00;99.90
16263;DHT22;8239;48.594;8.598;2024-02-26T05:57:35;4.00;99.90
16263;DHT22;8239;48.594;8.598;2024-02-26T06:00:03;4.00;99.90
16263;DHT22;8239;48.594;8.598;2024-02-26T06:02:30;4.00;99.90
16263;DHT22;8239;48.594;8.598;2024-02-26T06:04:58;4.00;99.90
16263;DHT22;8239;48.594;8.598;2024-02-26T06:07:25;4.00;99.90
16263;DHT22;8239;48.594;8.598;2024-02-26T06:09:52;4.00;99.90
16263;DHT22;8239;48.594;8.598;2024-02-26T06:12:19;4.00;99.90
16263;DHT22;8239;48.594;8.598;2024-02-26T06:14:47;3.80;99.90
16263;DHT22;8239;48.594;8.598;2024-02-26T06:17:14;3.90;99.90
16263;DHT22;8239;48.594;8.598;2024-02-26T06:19:41;3.90;99.90
16263;DHT22;8239;48.594;8.598;2024-02-26T06:22:09;3.90;99.90
16263;DHT22;8239;48.594;8.598;2024-02-26T06:24:36;4.00;99.90
16263;DHT22;8239;48.594;8.598;2024-02-26T06:27:03;4.00;99.90
16263;DHT22;8239;48.594;8.598;2024-02-26T06:29:30;4.00;99.90
16263;DHT22;8239;48.594;8.598;2024-02-26T06:31:57;4.00;99.90
16263;DHT22;8239;48.594;8.598;2024-02-26T06:34:24;4.00;99.90
16263;DHT22;8239;48.594;8.598;2024-02-26T06:36:51;4.00;99.90
16263;DHT22;8239;48.594;8.598;2024-02-26T06:39:19;4.10;99.90
16263;DHT22;8239;48.594;8.598;2024-02-26T06:41:46;4.20;99.90
16263;DHT22;8239;48.594;8.598;2024-02-26T06:44:13;4.10;99.90
16263;DHT22;8239;48.594;8.598;2024-02-26T06:46:40;4.10;99.90
16263;DHT22;8239;48.594;8.598;2024-02-26T06:49:07;4.20;99.90
16263;DHT22;8239;48.594;8.598;2024-02-26T06:51:34;4.20;99.90
16263;DHT22;8239;48.594;8.598;2024-02-26T06:54:01;4.30;99.90
16263;DHT22;8239;48.594;8.598;2024-02-26T06:56:29;4.30;99.90
16263;DHT22;8239;48.594;8.598;2024-02-26T06:58:56;4.40;99.90
16263;DHT22;8239;48.594;8.598;2024-02-26T07:01:23;4.40;99.90
16263;DHT22;8239;48.594;8.598;2024-02-26T07:03:50;4.30;99.90
16263;DHT22;8239;48.594;8.598;2024-02-26T07:06:17;4.30;99.90
16263;DHT22;8239;48.594;8.598;2024-02-26T07:08:44;4.40;99.90
16263;DHT22;8239;48.594;8.598;2024-02-26T07:11:11;4.30;99.90
16263;DHT22;8239;48.594;8.598;2024-02-26T07:13:39;4.30;99.90
16263;DHT22;8239;48.594;8.598;2024-02-26T07:16:09;4.30;99.90
16263;DHT22;8239;48.594;8.598;2024-02-26T07:18:36;4.30;99.90
16263;DHT22;8239;48.594;8.598;2024-02-26T07:21:03;4.30;99.90
16263;DHT22;8239;48.594;8.598;2024-02-26T07:23:31;4.30;99.90
16263;DHT22;8239;48.594;8.598;2024-02-26T07:25:58;4.40;99.90
16263;DHT22;8239;48.594;8.598;2024-02-26T07:28:25;4.40;99.90
16263;DHT22;8239;48.594;8.598;2024-02-26T07:30:53;4.50;99.90
16263;DHT22;8239;48.594;8.598;2024-02-26T07:33:20;4.60;99.90
16263;DHT22;8239;48.594;8.598;2024-02-26T07:35:48;4.80;99.90
16263;DHT22;8239;48.594;8.598;2024-02-26T07:38:15;4.90;99.90
16263;DHT22;8239;48.594;8.598;2024-02-26T07:40:42;5.10;99.90
16263;DHT22;8239;48.594;8.598;2024-02-26T07:43:09;5.20;99.90
16263;DHT22;8239;48.594;8.598;2024-02-26T07:45:36;5.20;99.90
16263;DHT22;8239;48.594;8.598;2024-02-26T07:48:05;5.30;99.90
16263;DHT22;8239;48.594;8.598;2024-02-26T07:50:32;5.30;99.90
16263;DHT22;8239;48.594;8.598;2024-02-26T07:52:59;5.30;99.90
16263;DHT22;8239;48.594;8.598;2024-02-26T07:55:26;5.20;99.90
16263;DHT22;8239;48.594;8.598;2024-02-26T07:57:52;5.20;99.90
16263;DHT22;8239;48.594;8.598;2024-02-26T08:00:20;5.10;99.90
16263;DHT22;8239;48.594;8.598;2024-02-26T08:02:47;5.10;99.90
16263;DHT22;8239;48.594;8.598;2024-02-26T08:05:15;5.30;99.90
16263;DHT22;8239;48.594;8.598;2024-02-26T08:07:42;5.40;99.90
16263;DHT22;8239;48.594;8.598;2024-02-26T08:10:09;5.60;99.90
16263;DHT22;8239;48.594;8.598;2024-02-26T08:12:36;5.80;99.90
16263;DHT22;8239;48.594;8.598;2024-02-26T08:15:04;6.00;99.90
16263;DHT22;8239;48.594;8.598;2024-02-26T08:17:31;6.10;99.90
16263;DHT22;8239;48.594;8.598;2024-02-26T08:19:58;6.10;99.90
16263;DHT22;8239;48.594;8.598;2024-02-26T08:22:26;6.30;99.90
16263;DHT22;8239;48.594;8.598;2024-02-26T08:24:53;6.30;99.90
16263;DHT22;8239;48.594;8.598;2024-02-26T08:27:20;6.40;99.90
16263;DHT22;8239;48.594;8.598;2024-02-26T08:29:47;6.30;99.90
16263;DHT22;8239;48.594;8.598;2024-02-26T08:32:14;6.20;99.90
16263;DHT22;8239;48.594;8.598;2024-02-26T08:34:41;6.20;99.90
16263;DHT22;8239;48.594;8.598;2024-02-26T08:37:08;6.20;99.90
16263;DHT22;8239;48.594;8.598;2024-02-26T08:39:36;6.20;99.90
16263;DHT22;8239;48.594;8.598;2024-02-26T08:42:04;6.30;99.90
16263;DHT22;8239;48.594;8.598;2024-02-26T08:44:31;6.30;99.90
16263;DHT22;8239;48.594;8.598;2024-02-26T08:46:58;6.40;99.90
16263;DHT22;8239;48.594;8.598;2024-02-26T08:49:25;6.60;99.90
16263;DHT22;8239;48.594;8.598;2024-02-26T08:51:52;6.90;99.90
16263;DHT22;8239;48.594;8.598;2024-02-26T08:54:19;7.40;99.90
16263;DHT22;8239;48.594;8.598;2024-02-26T08:56:47;7.90;99.90
16263;DHT22;8239;48.594;8.598;2024-02-26T08:59:14;8.50;99.90
16263;DHT22;8239;48.594;8.598;2024-02-26T09:01:42;8.70;99.90
16263;DHT22;8239;48.594;8.598;2024-02-26T09:04:08;9.10;99.90
16263;DHT22;8239;48.594;8.598;2024-02-26T09:06:35;9.30;99.90
16263;DHT22;8239;48.594;8.598;2024-02-26T09:09:02;9.30;99.90
16263;DHT22;8239;48.594;8.598;2024-02-26T09:11:30;9.40;99.90
16263;DHT22;8239;48.594;8.598;2024-02-26T09:13:58;9.50;99.90
16263;DHT22;8239;48.594;8.598;2024-02-26T09:16:25;9.40;99.10
16263;DHT22;8239;48.594;8.598;2024-02-26T09:18:52;9.50;98.40
16263;DHT22;8239;48.594;8.598;2024-02-26T09:21:19;9.50;98.20
16263;DHT22;8239;48.594;8.598;2024-02-26T09:23:48;9.40;98.30
16263;DHT22;8239;48.594;8.598;2024-02-26T09:26:15;9.50;98.20
16263;DHT22;8239;48.594;8.598;2024-02-26T09:28:43;9.40;99.90
16263;DHT22;8239;48.594;8.598;2024-02-26T09:31:11;9.50;99.90
16263;DHT22;8239;48.594;8.598;2024-02-26T09:33:38;9.80;98.30
16263;DHT22;8239;48.594;8.598;2024-02-26T09:36:05;10.20;96.90
16263;DHT22;8239;48.594;8.598;2024-02-26T09:38:32;10.60;95.80
16263;DHT22;8239;48.594;8.598;2024-02-26T09:41:02;10.80;92.90
16263;DHT22;8239;48.594;8.598;2024-02-26T09:43:34;11.00;93.10
16263;DHT22;8239;48.594;8.598;2024-02-26T09:46:02;11.10;92.50
16263;DHT22;8239;48.594;8.598;2024-02-26T09:48:31;11.20;91.40
16263;DHT22;8239;48.594;8.598;2024-02-26T09:50:59;11.00;91.10
16263;DHT22;8239;48.594;8.598;2024-02-26T09:53:29;10.80;92.00
16263;DHT22;8239;48.594;8.598;2024-02-26T09:55:57;10.50;93.90
16263;DHT22;8239;48.594;8.598;2024-02-26T09:58:25;10.20;95.80
16263;DHT22;8239;48.594;8.598;2024-02-26T10:00:56;10.10;96.00
16263;DHT22;8239;48.594;8.598;2024-02-26T10:03:27;10.00;96.00
16263;DHT22;8239;48.594;8.598;2024-02-26T10:05:56;9.80;96.80
16263;DHT22;8239;48.594;8.598;2024-02-26T10:08:24;9.70;98.30
16263;DHT22;8239;48.594;8.598;2024-02-26T10:10:52;9.50;98.60
16263;DHT22;8239;48.594;8.598;2024-02-26T10:13:19;9.70;99.70
16263;DHT22;8239;48.594;8.598;2024-02-26T10:15:46;9.90;99.30
16263;DHT22;8239;48.594;8.598;2024-02-26T10:18:13;9.80;98.90
16263;DHT22;8239;48.594;8.598;2024-02-26T10:20:40;9.80;98.70
16263;DHT22;8239;48.594;8.598;2024-02-26T10:23:08;10.10;98.50
16263;DHT22;8239;48.594;8.598;2024-02-26T10:25:35;10.40;97.70
16263;DHT22;8239;48.594;8.598;2024-02-26T10:28:02;10.70;97.40
16263;DHT22;8239;48.594;8.598;2024-02-26T10:30:29;11.20;97.10
16263;DHT22;8239;48.594;8.598;2024-02-26T10:32:57;11.70;95.90
16263;DHT22;8239;48.594;8.598;2024-02-26T10:35:24;12.20;93.40
16263;DHT22;8239;48.594;8.598;2024-02-26T10:37:51;12.70;91.90
16263;DHT22;8239;48.594;8.598;2024-02-26T10:40:21;13.20;92.00
16263;DHT22;8239;48.594;8.598;2024-02-26T10:42:48;14.40;88.70
16263;DHT22;8239;48.594;8.598;2024-02-26T10:45:14;15.40;82.80
16263;DHT22;8239;48.594;8.598;2024-02-26T10:47:41;16.60;77.10
16263;DHT22;8239;48.594;8.598;2024-02-26T10:50:09;17.70;69.90
16263;DHT22;8239;48.594;8.598;2024-02-26T10:52:37;18.40;65.10
16263;DHT22;8239;48.594;8.598;2024-02-26T10:55:05;19.10;60.80
16263;DHT22;8239;48.594;8.598;2024-02-26T10:57:38;19.60;58.00
16263;DHT22;8239;48.594;8.598;2024-02-26T11:00:07;20.30;57.70
16263;DHT22;8239;48.594;8.598;2024-02-26T11:02:38;20.50;56.30
16263;DHT22;8239;48.594;8.598;2024-02-26T11:05:07;19.80;53.50
16263;DHT22;8239;48.594;8.598;2024-02-26T11:07:35;18.90;54.10
16263;DHT22;8239;48.594;8.598;2024-02-26T11:10:04;18.10;54.90
16263;DHT22;8239;48.594;8.598;2024-02-26T11:12:34;17.80;54.20
16263;DHT22;8239;48.594;8.598;2024-02-26T11:15:03;17.40;55.70
16263;DHT22;8239;48.594;8.598;2024-02-26T11:17:31;17.00;58.00
16263;DHT22;8239;48.594;8.598;2024-02-26T11:20:00;16.10;57.60
16263;DHT22;8239;48.594;8.598;2024-02-26T11:22:28;15.50;59.50
16263;DHT22;8239;48.594;8.598;2024-02-26T11:24:56;15.10;62.00
16263;DHT22;8239;48.594;8.598;2024-02-26T11:27:26;14.50;64.10
16263;DHT22;8239;48.594;8.598;2024-02-26T11:29:59;13.90;66.10
16263;DHT22;8239;48.594;8.598;2024-02-26T11:32:30;13.40;68.10
16263;DHT22;8239;48.594;8.598;2024-02-26T11:34:58;13.20;69.10
16263;DHT22;8239;48.594;8.598;2024-02-26T11:37:25;13.10;69.50
16263;DHT22;8239;48.594;8.598;2024-02-26T11:39:53;12.70;71.00
16263;DHT22;8239;48.594;8.598;2024-02-26T11:42:23;12.40;72.10
16263;DHT22;8239;48.594;8.598;2024-02-26T11:44:51;11.90;73.50
16263;DHT22;8239;48.594;8.598;2024-02-26T11:47:20;11.70;75.10
16263;DHT22;8239;48.594;8.598;2024-02-26T11:49:48;11.50;76.50
16263;DHT22;8239;48.594;8.598;2024-02-26T11:52:16;11.10;78.90
16263;DHT22;8239;48.594;8.598;2024-02-26T11:54:47;10.80;80.90
16263;DHT22;8239;48.594;8.598;2024-02-26T11:57:25;10.50;84.20
16263;DHT22;8239;48.594;8.598;2024-02-26T11:59:53;10.40;87.60
16263;DHT22;8239;48.594;8.598;2024-02-26T12:02:44;10.40;90.00
16263;DHT22;8239;48.594;8.598;2024-02-26T12:05:12;10.40;90.50
16263;DHT22;8239;48.594;8.598;2024-02-26T12:07:40;10.30;90.90
16263;DHT22;8239;48.594;8.598;2024-02-26T12:10:25;10.30;91.90
16263;DHT22;8239;48.594;8.598;2024-02-26T12:12:55;10.30;92.40
16263;DHT22;8239;48.594;8.598;2024-02-26T12:15:30;10.40;93.70
16263;DHT22;8239;48.594;8.598;2024-02-26T12:18:01;10.50;93.90
16263;DHT22;8239;48.594;8.598;2024-02-26T12:20:28;10.60;94.40
16263;DHT22;8239;48.594;8.598;2024-02-26T12:22:56;10.70;94.40
16263;DHT22;8239;48.594;8.598;2024-02-26T12:25:25;11.00;94.80
16263;DHT22;8239;48.594;8.598;2024-02-26T12:27:53;11.20;94.20
16263;DHT22;8239;48.594;8.598;2024-02-26T12:30:20;11.50;93.50
16263;DHT22;8239;48.594;8.598;2024-02-26T12:32:48;11.80;92.20
16263;DHT22;8239;48.594;8.598;2024-02-26T12:35:17;12.10;90.70
16263;DHT22;8239;48.594;8.598;2024-02-26T12:37:45;12.60;90.50
16263;DHT22;8239;48.594;8.598;2024-02-26T12:40:21;13.30;86.40
16263;DHT22;8239;48.594;8.598;2024-02-26T12:42:48;13.90;82.90
16263;DHT22;8239;48.594;8.598;2024-02-26T12:45:15;14.60;79.60
16263;DHT22;8239;48.594;8.598;2024-02-26T12:47:43;15.10;75.70
16263;DHT22;8239;48.594;8.598;2024-02-26T12:50:11;15.20;73.20
16263;DHT22;8239;48.594;8.598;2024-02-26T12:52:42;15.50;72.50
16263;DHT22;8239;48.594;8.598;2024-02-26T12:55:13;16.00;70.10
16263;DHT22;8239;48.594;8.598;2024-02-26T12:57:41;16.70;67.80
16263;DHT22;8239;48.594;8.598;2024-02-26T13:00:12;17.40;65.80
16263;DHT22;8239;48.594;8.598;2024-02-26T13:02:41;18.00;62.80
16263;DHT22;8239;48.594;8.598;2024-02-26T13:05:11;18.00;60.10
16263;DHT22;8239;48.594;8.598;2024-02-26T13:07:42;18.00;60.60
16263;DHT22;8239;48.594;8.598;2024-02-26T13:10:13;17.30;58.70
16263;DHT22;8239;48.594;8.598;2024-02-26T13:12:43;16.40;59.70
16263;DHT22;8239;48.594;8.598;2024-02-26T13:15:15;15.60;61.90
16263;DHT22;8239;48.594;8.598;2024-02-26T13:17:42;14.80;63.60
16263;DHT22;8239;48.594;8.598;2024-02-26T13:20:09;14.00;65.90
16263;DHT22;8239;48.594;8.598;2024-02-26T13:22:37;13.60;69.50
16263;DHT22;8239;48.594;8.598;2024-02-26T13:25:06;13.70;70.80
16263;DHT22;8239;48.594;8.598;2024-02-26T13:27:34;13.80;70.00
16263;DHT22;8239;48.594;8.598;2024-02-26T13:30:06;13.90;70.20
16263;DHT22;8239;48.594;8.598;2024-02-26T13:32:36;14.10;69.00
16263;DHT22;8239;48.594;8.598;2024-02-26T13:35:05;14.40;67.70
16263;DHT22;8239;48.594;8.598;2024-02-26T13:37:33;14.50;67.30
16263;DHT22;8239;48.594;8.598;2024-02-26T13:40:00;14.60;67.80
16263;DHT22;8239;48.594;8.598;2024-02-26T13:42:31;14.90;68.90
16263;DHT22;8239;48.594;8.598;2024-02-26T13:44:58;15.30;66.60
16263;DHT22;8239;48.594;8.598;2024-02-26T13:47:25;15.60;66.30
16263;DHT22;8239;48.594;8.598;2024-02-26T13:49:52;15.50;65.50
16263;DHT22;8239;48.594;8.598;2024-02-26T13:52:19;15.60;65.70
16263;DHT22;8239;48.594;8.598;2024-02-26T13:54:46;15.90;66.10
16263;DHT22;8239;48.594;8.598;2024-02-26T13:57:13;16.70;64.40
16263;DHT22;8239;48.594;8.598;2024-02-26T13:59:42;17.10;62.20
16263;DHT22;8239;48.594;8.598;2024-02-26T14:02:09;17.70;60.90
16263;DHT22;8239;48.594;8.598;2024-02-26T14:04:36;18.30;58.90
16263;DHT22;8239;48.594;8.598;2024-02-26T14:07:03;18.40;56.10
16263;DHT22;8239;48.594;8.598;2024-02-26T14:09:30;18.40;57.30
16263;DHT22;8239;48.594;8.598;2024-02-26T14:11:57;18.40;56.10
16263;DHT22;8239;48.594;8.598;2024-02-26T14:14:25;18.50;55.40
16263;DHT22;8239;48.594;8.598;2024-02-26T14:16:53;18.70;55.50
16263;DHT22;8239;48.594;8.598;2024-02-26T14:19:20;18.90;53.40
16263;DHT22;8239;48.594;8.598;2024-02-26T14:21:47;18.70;53.40
16263;DHT22;8239;48.594;8.598;2024-02-26T14:24:14;19.10;54.20
16263;DHT22;8239;48.594;8.598;2024-02-26T14:26:41;19.00;53.40
16263;DHT22;8239;48.594;8.598;2024-02-26T14:29:08;19.20;53.30
16263;DHT22;8239;48.594;8.598;2024-02-26T14:31:35;19.20;52.00
16263;DHT22;8239;48.594;8.598;2024-02-26T14:34:03;18.60;53.30
16263;DHT22;8239;48.594;8.598;2024-02-26T14:36:30;18.30;54.30
16263;DHT22;8239;48.594;8.598;2024-02-26T14:38:57;18.00;54.60
16263;DHT22;8239;48.594;8.598;2024-02-26T14:41:24;17.50;55.60
16263;DHT22;8239;48.594;8.598;2024-02-26T14:43:51;17.00;56.90
16263;DHT22;8239;48.594;8.598;2024-02-26T14:46:18;16.40;57.70
16263;DHT22;8239;48.594;8.598;2024-02-26T14:48:45;15.90;58.60
16263;DHT22;8239;48.594;8.598;2024-02-26T14:51:13;15.60;59.30
16263;DHT22;8239;48.594;8.598;2024-02-26T14:53:40;15.40;60.10
16263;DHT22;8239;48.594;8.598;2024-02-26T14:56:07;15.20;61.30
16263;DHT22;8239;48.594;8.598;2024-02-26T14:58:35;14.90;61.80
16263;DHT22;8239;48.594;8.598;2024-02-26T15:01:03;14.80;63.50
16263;DHT22;8239;48.594;8.598;2024-02-26T15:03:31;14.80;64.20
16263;DHT22;8239;48.594;8.598;2024-02-26T15:05:57;15.00;64.10
16263;DHT22;8239;48.594;8.598;2024-02-26T15:08:26;15.10;64.30
16263;DHT22;8239;48.594;8.598;2024-02-26T15:10:53;15.20;64.60
16263;DHT22;8239;48.594;8.598;2024-02-26T15:13:20;15.20;64.30
16263;DHT22;8239;48.594;8.598;2024-02-26T15:15:47;15.30;63.90
16263;DHT22;8239;48.594;8.598;2024-02-26T15:18:14;15.40;63.00
16263;DHT22;8239;48.594;8.598;2024-02-26T15:20:42;15.40;62.40
16263;DHT22;8239;48.594;8.598;2024-02-26T15:23:09;15.60;61.90
16263;DHT22;8239;48.594;8.598;2024-02-26T15:25:38;15.70;61.30
16263;DHT22;8239;48.594;8.598;2024-02-26T15:28:07;15.90;61.20
16263;DHT22;8239;48.594;8.598;2024-02-26T15:30:35;16.10;60.50
16263;DHT22;8239;48.594;8.598;2024-02-26T15:33:02;16.40;59.80
16263;DHT22;8239;48.594;8.598;2024-02-26T15:35:29;16.60;58.90
16263;DHT22;8239;48.594;8.598;2024-02-26T15:37:56;16.70;58.10
16263;DHT22;8239;48.594;8.598;2024-02-26T15:40:23;17.00;58.70
16263;DHT22;8239;48.594;8.598;2024-02-26T15:42:52;17.00;57.60
16263;DHT22;8239;48.594;8.598;2024-02-26T15:45:18;17.00;57.70
16263;DHT22;8239;48.594;8.598;2024-02-26T15:47:45;16.90;57.20
16263;DHT22;8239;48.594;8.598;2024-02-26T15:50:13;16.50;57.20
16263;DHT22;8239;48.594;8.598;2024-02-26T15:52:40;16.10;58.00
16263;DHT22;8239;48.594;8.598;2024-02-26T15:55:07;15.70;58.50
16263;DHT22;8239;48.594;8.598;2024-02-26T15:57:34;15.30;58.90